sensor_id;sensor_type;location;lat;lon;timestamp;pressure;altitude;pressure_sealevel;temperature;humidity
49973;BME280;65693;49.798;10.968;2023-05-19T00:00:54;98857.81;;;14.30;44.63
49973;BME280;65693;49.798;10.968;2023-05-19T00:03:21;98861.66;;;14.26;44.85
49973;BME280;65693;49.798;10.968;2023-05-19T00:05:48;98859.97;;;14.25;44.87
49973;BME280;65693;49.798;10.968;2023-05-19T00:08:18;98866.16;;;14.25;44.82
49973;BME280;65693;49.798;10.968;2023-05-19T00:10:47;98853.69;;;14.26;44.94
49973;BME280;65693;49.798;10.968;2023-05-19T00:13:14;98856.56;;;14.22;44.94
49973;BME280;65693;49.798;10.968;2023-05-19T00:15:41;98847.69;;;14.22;44.87
49973;BME280;65693;49.798;10.968;2023-05-19T00:18:07;98849.53;;;14.21;45.00
49973;BME280;65693;49.798;10.968;2023-05-19T00:20:34;98843.31;;;14.21;44.89
49973;BME280;65693;49.798;10.968;2023-05-19T00:23:01;98851.22;;;14.22;44.82
49973;BME280;65693;49.798;10.968;2023-05-19T00:25:28;98840.66;;;14.21;44.96
49973;BME280;65693;49.798;10.968;2023-05-19T00:27:55;98841.63;;;14.20;45.08
49973;BME280;65693;49.798;10.968;2023-05-19T00:30:23;98840.78;;;14.19;44.98
49973;BME280;65693;49.798;10.968;2023-05-19T00:32:50;98835.44;;;14.19;44.80
49973;BME280;65693;49.798;10.968;2023-05-19T00:35:16;98843.31;;;14.21;44.75
49973;BME280;65693;49.798;10.968;2023-05-19T00:37:43;98833.75;;;14.18;44.78
49973;BME280;65693;49.798;10.968;2023-05-19T00:40:10;98832.78;;;14.19;44.98
49973;BME280;65693;49.798;10.968;2023-05-19T00:42:37;98831.28;;;14.15;44.93
49973;BME280;65693;49.798;10.968;2023-05-19T00:45:06;98831.16;;;14.17;44.90
49973;BME280;65693;49.798;10.968;2023-05-19T00:47:32;98835.66;;;14.16;45.07
49973;BME280;65693;49.798;10.968;2023-05-19T00:49:59;98823.41;;;14.14;45.04
49973;BME280;65693;49.798;10.968;2023-05-19T00:52:26;98828.41;;;14.18;45.00
49973;BME280;65693;49.798;10.968;2023-05-19T00:54:52;98826.06;;;14.14;44.97
49973;BME280;65693;49.798;10.968;2023-05-19T00:57:20;98827.66;;;14.16;44.78
49973;BME280;65693;49.798;10.968;2023-05-19T00:59:47;98824.22;;;14.14;44.97
49973;BME280;65693;49.798;10.968;2023-05-19T01:02:15;98823.31;;;14.15;44.95
49973;BME280;65693;49.798;10.968;2023-05-19T01:04:42;98827.75;;;14.15;45.04
49973;BME280;65693;49.798;10.968;2023-05-19T01:07:10;98816.22;;;14.14;44.74
49973;BME280;65693;49.798;10.968;2023-05-19T01:09:37;98810.81;;;14.16;45.01
49973;BME280;65693;49.798;10.968;2023-05-19T01:12:05;98809.19;;;14.13;44.94
49973;BME280;65693;49.798;10.968;2023-05-19T01:14:32;98821.78;;;14.11;45.04
49973;BME280;65693;49.798;10.968;2023-05-19T01:17:02;98817.41;;;14.10;45.07
49973;BME280;65693;49.798;10.968;2023-05-19T01:19:45;98820.81;;;14.12;44.88
49973;BME280;65693;49.798;10.968;2023-05-19T01:22:28;98816.34;;;14.13;44.97
49973;BME280;65693;49.798;10.968;2023-05-19T01:25:25;98815.72;;;14.09;45.18
49973;BME280;65693;49.798;10.968;2023-05-19T01:28:22;98804.09;;;14.10;45.04
49973;BME280;65693;49.798;10.968;2023-05-19T01:30:54;98809.41;;;14.10;44.99
49973;BME280;65693;49.798;10.968;2023-05-19T01:33:22;98809.63;;;14.07;45.01
49973;BME280;65693;49.798;10.968;2023-05-19T01:35:49;98802.59;;;14.06;44.96
49973;BME280;65693;49.798;10.968;2023-05-19T01:38:18;98805.16;;;14.07;45.08
49973;BME280;65693;49.798;10.968;2023-05-19T01:40:46;98802.59;;;14.06;44.92
49973;BME280;65693;49.798;10.968;2023-05-19T01:43:16;98808.03;;;14.04;45.06
49973;BME280;65693;49.798;10.968;2023-05-19T01:45:44;98804.53;;;14.04;45.10
49973;BME280;65693;49.798;10.968;2023-05-19T01:48:12;98806.22;;;14.05;45.06
49973;BME280;65693;49.798;10.968;2023-05-19T01:50:40;98800.03;;;14.04;44.94
49973;BME280;65693;49.798;10.968;2023-05-19T01:53:06;98800.91;;;14.05;45.07
49973;BME280;65693;49.798;10.968;2023-05-19T01:55:34;98805.34;;;14.04;45.08
49973;BME280;65693;49.798;10.968;2023-05-19T01:58:07;98801.72;;;14.05;45.15
49973;BME280;65693;49.798;10.968;2023-05-19T02:00:42;98799.19;;;14.04;45.06
49973;BME280;65693;49.798;10.968;2023-05-19T02:03:36;98800.16;;;14.03;45.05
49973;BME280;65693;49.798;10.968;2023-05-19T02:06:17;98795.78;;;14.02;44.97
49973;BME280;65693;49.798;10.968;2023-05-19T02:08:55;98789.59;;;14.01;45.03
49973;BME280;65693;49.798;10.968;2023-05-19T02:11:26;98790.44;;;14.02;45.08
49973;BME280;65693;49.798;10.968;2023-05-19T02:13:56;98792.25;;;14.01;45.01
49973;BME280;65693;49.798;10.968;2023-05-19T02:16:27;98786.19;;;13.99;45.07
49973;BME280;65693;49.798;10.968;2023-05-19T02:18:55;98789.72;;;14.00;45.20
49973;BME280;65693;49.798;10.968;2023-05-19T02:21:23;98780.75;;;14.01;45.17
49973;BME280;65693;49.798;10.968;2023-05-19T02:23:50;98775.59;;;13.98;45.01
49973;BME280;65693;49.798;10.968;2023-05-19T02:26:16;98785.34;;;13.99;45.11
49973;BME280;65693;49.798;10.968;2023-05-19T02:28:42;98786.28;;;13.98;45.14
49973;BME280;65693;49.798;10.968;2023-05-19T02:31:09;98796.84;;;13.99;45.06
49973;BME280;65693;49.798;10.968;2023-05-19T02:33:35;98796.84;;;13.99;45.10
49973;BME280;65693;49.798;10.968;2023-05-19T02:36:04;98796.84;;;13.99;45.15
49973;BME280;65693;49.798;10.968;2023-05-19T02:38:30;98794.47;;;13.94;45.13
49973;BME280;65693;49.798;10.968;2023-05-19T02:40:56;98789.81;;;13.98;45.14
49973;BME280;65693;49.798;10.968;2023-05-19T02:43:23;98788.09;;;13.97;45.08
49973;BME280;65693;49.798;10.968;2023-05-19T02:45:49;98785.53;;;13.96;45.11
49973;BME280;65693;49.798;10.968;2023-05-19T02:48:16;98790.03;;;13.95;45.09
49973;BME280;65693;49.798;10.968;2023-05-19T02:50:42;98788.19;;;13.96;45.08
49973;BME280;65693;49.798;10.968;2023-05-19T02:53:10;98778.63;;;13.93;45.20
49973;BME280;65693;49.798;10.968;2023-05-19T02:55:36;98779.44;;;13.93;45.04
49973;BME280;65693;49.798;10.968;2023-05-19T02:58:02;98772.31;;;13.94;45.13
49973;BME280;65693;49.798;10.968;2023-05-19T03:00:29;98776.78;;;13.93;45.10
49973;BME280;65693;49.798;10.968;2023-05-19T03:02:55;98776.03;;;13.91;44.97
49973;BME280;65693;49.798;10.968;2023-05-19T03:05:26;98776.91;;;13.92;45.18
49973;BME280;65693;49.798;10.968;2023-05-19T03:07:53;98780.53;;;13.91;45.24
49973;BME280;65693;49.798;10.968;2023-05-19T03:10:20;98778.72;;;13.91;45.17
49973;BME280;65693;49.798;10.968;2023-05-19T03:12:47;98778.94;;;13.88;45.22
49973;BME280;65693;49.798;10.968;2023-05-19T03:15:13;98774.56;;;13.87;45.35
49973;BME280;65693;49.798;10.968;2023-05-19T03:17:40;98775.53;;;13.86;45.37
49973;BME280;65693;49.798;10.968;2023-05-19T03:20:07;98777.22;;;13.87;45.21
49973;BME280;65693;49.798;10.968;2023-05-19T03:22:34;98777.22;;;13.87;45.24
49973;BME280;65693;49.798;10.968;2023-05-19T03:25:01;98779.03;;;13.87;45.30
49973;BME280;65693;49.798;10.968;2023-05-19T03:27:29;98777.22;;;13.87;45.28
49973;BME280;65693;49.798;10.968;2023-05-19T03:29:55;98780.84;;;13.86;45.35
49973;BME280;65693;49.798;10.968;2023-05-19T03:32:22;98778.28;;;13.85;45.30
49973;BME280;65693;49.798;10.968;2023-05-19T03:34:48;98778.28;;;13.85;45.31
49973;BME280;65693;49.798;10.968;2023-05-19T03:37:14;98787.13;;;13.85;45.21
49973;BME280;65693;49.798;10.968;2023-05-19T03:39:41;98781.91;;;13.84;45.34
49973;BME280;65693;49.798;10.968;2023-05-19T03:42:07;98784.56;;;13.84;45.43
49973;BME280;65693;49.798;10.968;2023-05-19T03:44:35;98784.56;;;13.84;45.28
49973;BME280;65693;49.798;10.968;2023-05-19T03:47:01;98786.38;;;13.83;45.44
49973;BME280;65693;49.798;10.968;2023-05-19T03:49:28;98787.22;;;13.84;45.23
49973;BME280;65693;49.798;10.968;2023-05-19T03:51:54;98792.78;;;13.80;45.34
49973;BME280;65693;49.798;10.968;2023-05-19T03:54:21;98790.94;;;13.81;45.32
49973;BME280;65693;49.798;10.968;2023-05-19T03:56:47;98792.69;;;13.82;45.30
49973;BME280;65693;49.798;10.968;2023-05-19T03:59:14;98791.06;;;13.79;45.59
49973;BME280;65693;49.798;10.968;2023-05-19T04:02:04;98795.44;;;13.80;45.47
49973;BME280;65693;49.798;10.968;2023-05-19T04:04:30;98798.09;;;13.80;45.52
49973;BME280;65693;49.798;10.968;2023-05-19T04:06:59;98805.13;;;13.82;45.46
49973;BME280;65693;49.798;10.968;2023-05-19T04:09:25;98796.41;;;13.79;45.49
49973;BME280;65693;49.798;10.968;2023-05-19T04:11:52;98804.47;;;13.78;45.55
49973;BME280;65693;49.798;10.968;2023-05-19T04:14:18;98795.66;;;13.77;45.46
49973;BME280;65693;49.798;10.968;2023-05-19T04:16:46;98800.00;;;13.78;45.38
49973;BME280;65693;49.798;10.968;2023-05-19T04:19:13;98801.81;;;13.78;45.49
49973;BME280;65693;49.798;10.968;2023-05-19T04:21:39;98800.97;;;13.77;45.45
49973;BME280;65693;49.798;10.968;2023-05-19T04:24:06;98796.59;;;13.76;45.56
49973;BME280;65693;49.798;10.968;2023-05-19T04:26:32;98803.50;;;13.79;45.52
49973;BME280;65693;49.798;10.968;2023-05-19T04:28:59;98811.50;;;13.79;45.77
49973;BME280;65693;49.798;10.968;2023-05-19T04:31:26;98804.59;;;13.76;45.64
49973;BME280;65693;49.798;10.968;2023-05-19T04:33:54;98802.91;;;13.75;45.65
49973;BME280;65693;49.798;10.968;2023-05-19T04:36:20;98805.44;;;13.77;45.47
49973;BME280;65693;49.798;10.968;2023-05-19T04:38:46;98804.59;;;13.76;45.62
49973;BME280;65693;49.798;10.968;2023-05-19T04:41:13;98804.69;;;13.75;45.55
49973;BME280;65693;49.798;10.968;2023-05-19T04:43:40;98797.56;;;13.75;45.78
49973;BME280;65693;49.798;10.968;2023-05-19T04:46:09;98803.72;;;13.76;45.54
49973;BME280;65693;49.798;10.968;2023-05-19T04:48:36;98804.69;;;13.75;45.59
49973;BME280;65693;49.798;10.968;2023-05-19T04:51:04;98804.69;;;13.75;45.69
49973;BME280;65693;49.798;10.968;2023-05-19T04:53:31;98803.72;;;13.76;45.64
49973;BME280;65693;49.798;10.968;2023-05-19T04:55:58;98810.88;;;13.75;45.54
49973;BME280;65693;49.798;10.968;2023-05-19T04:58:25;98810.88;;;13.75;45.48
49973;BME280;65693;49.798;10.968;2023-05-19T05:00:52;98806.38;;;13.76;45.57
49973;BME280;65693;49.798;10.968;2023-05-19T05:03:19;98807.34;;;13.75;45.62
49973;BME280;65693;49.798;10.968;2023-05-19T05:05:47;98815.34;;;13.75;45.69
49973;BME280;65693;49.798;10.968;2023-05-19T05:08:14;98809.25;;;13.73;45.68
49973;BME280;65693;49.798;10.968;2023-05-19T05:10:48;98799.47;;;13.73;45.88
49973;BME280;65693;49.798;10.968;2023-05-19T05:13:15;98811.72;;;13.76;45.70
49973;BME280;65693;49.798;10.968;2023-05-19T05:15:42;98806.50;;;13.74;45.81
49973;BME280;65693;49.798;10.968;2023-05-19T05:18:09;98800.22;;;13.75;45.66
49973;BME280;65693;49.798;10.968;2023-05-19T05:20:36;98795.03;;;13.59;46.17
49973;BME280;65693;49.798;10.968;2023-05-19T05:23:03;98806.75;;;13.57;46.26
49973;BME280;65693;49.798;10.968;2023-05-19T05:25:32;98794.50;;;13.54;46.27
49973;BME280;65693;49.798;10.968;2023-05-19T05:27:58;98797.31;;;13.65;46.19
49973;BME280;65693;49.798;10.968;2023-05-19T05:30:29;98800.91;;;13.64;46.29
49973;BME280;65693;49.798;10.968;2023-05-19T05:32:55;98799.84;;;13.67;46.11
49973;BME280;65693;49.798;10.968;2023-05-19T05:35:22;98791.84;;;13.67;46.04
49973;BME280;65693;49.798;10.968;2023-05-19T05:37:49;98795.25;;;13.69;46.00
49973;BME280;65693;49.798;10.968;2023-05-19T05:40:16;98796.13;;;13.70;46.00
49973;BME280;65693;49.798;10.968;2023-05-19T05:42:44;98798.06;;;13.68;46.12
49973;BME280;65693;49.798;10.968;2023-05-19T05:45:10;98795.25;;;13.69;46.03
49973;BME280;65693;49.798;10.968;2023-05-19T05:47:37;98790.81;;;13.70;46.09
49973;BME280;65693;49.798;10.968;2023-05-19T05:50:08;98787.41;;;13.68;46.40
49973;BME280;65693;49.798;10.968;2023-05-19T05:52:36;98795.25;;;13.69;45.99
49973;BME280;65693;49.798;10.968;2023-05-19T05:55:03;98792.50;;;13.71;46.04
49973;BME280;65693;49.798;10.968;2023-05-19T05:57:30;98796.13;;;13.70;46.02
49973;BME280;65693;49.798;10.968;2023-05-19T06:00:00;98793.56;;;13.68;46.15
49973;BME280;65693;49.798;10.968;2023-05-19T06:02:30;98804.13;;;13.70;46.12
49973;BME280;65693;49.798;10.968;2023-05-19T06:04:57;98801.47;;;13.70;46.06
49973;BME280;65693;49.798;10.968;2023-05-19T06:07:23;98799.00;;;13.66;46.16
49973;BME280;65693;49.798;10.968;2023-05-19T06:09:50;98789.94;;;13.69;46.10
49973;BME280;65693;49.798;10.968;2023-05-19T06:12:16;98798.06;;;13.68;46.11
49973;BME280;65693;49.798;10.968;2023-05-19T06:14:43;98792.72;;;13.68;46.21
49973;BME280;65693;49.798;10.968;2023-05-19T06:17:10;98798.88;;;13.68;46.13
49973;BME280;65693;49.798;10.968;2023-05-19T06:19:37;98798.69;;;13.71;46.01
49973;BME280;65693;49.798;10.968;2023-05-19T06:22:03;98803.16;;;13.71;46.09
49973;BME280;65693;49.798;10.968;2023-05-19T06:24:30;98802.41;;;13.69;46.06
49973;BME280;65693;49.798;10.968;2023-05-19T06:26:56;98793.56;;;13.68;46.07
49973;BME280;65693;49.798;10.968;2023-05-19T06:29:23;98799.75;;;13.69;45.91
49973;BME280;65693;49.798;10.968;2023-05-19T06:31:49;98792.72;;;13.68;46.10
49973;BME280;65693;49.798;10.968;2023-05-19T06:34:17;98793.56;;;13.68;46.04
49973;BME280;65693;49.798;10.968;2023-05-19T06:36:45;98795.47;;;13.66;46.20
49973;BME280;65693;49.798;10.968;2023-05-19T06:39:11;98803.38;;;13.68;46.20
49973;BME280;65693;49.798;10.968;2023-05-19T06:41:37;98797.09;;;13.69;46.06
49973;BME280;65693;49.798;10.968;2023-05-19T06:44:05;98799.97;;;13.65;46.27
49973;BME280;65693;49.798;10.968;2023-05-19T06:46:32;98801.75;;;13.65;46.19
49973;BME280;65693;49.798;10.968;2023-05-19T06:48:58;98808.88;;;13.64;46.22
49973;BME280;65693;49.798;10.968;2023-05-19T06:51:26;98797.41;;;13.64;46.27
49973;BME280;65693;49.798;10.968;2023-05-19T06:53:52;98798.22;;;13.64;46.28
49973;BME280;65693;49.798;10.968;2023-05-19T06:56:19;98797.09;;;13.69;46.36
49973;BME280;65693;49.798;10.968;2023-05-19T06:58:47;98791.97;;;13.65;46.66
49973;BME280;65693;49.798;10.968;2023-05-19T07:01:13;98792.28;;;13.61;46.97
49973;BME280;65693;49.798;10.968;2023-05-19T07:03:39;98790.88;;;13.55;46.82
49973;BME280;65693;49.798;10.968;2023-05-19T07:06:06;98784.38;;;13.59;47.14
49973;BME280;65693;49.798;10.968;2023-05-19T07:08:35;98787.16;;;13.58;47.61
49973;BME280;65693;49.798;10.968;2023-05-19T07:11:01;98777.56;;;13.55;47.55
49973;BME280;65693;49.798;10.968;2023-05-19T07:13:29;98778.22;;;13.59;47.52
49973;BME280;65693;49.798;10.968;2023-05-19T07:15:57;98775.66;;;13.57;47.31
49973;BME280;65693;49.798;10.968;2023-05-19T07:18:23;98786.28;;;13.57;47.68
49973;BME280;65693;49.798;10.968;2023-05-19T07:20:50;98778.72;;;13.51;47.73
49973;BME280;65693;49.798;10.968;2023-05-19T07:23:17;98782.47;;;13.61;48.02
49973;BME280;65693;49.798;10.968;2023-05-19T07:25:44;98778.09;;;13.60;47.97
49973;BME280;65693;49.798;10.968;2023-05-19T07:28:11;98773.50;;;13.62;47.66
49973;BME280;65693;49.798;10.968;2023-05-19T07:30:37;98770.66;;;13.65;48.28
49973;BME280;65693;49.798;10.968;2023-05-19T07:33:04;98772.38;;;13.66;47.77
49973;BME280;65693;49.798;10.968;2023-05-19T07:35:30;98764.47;;;13.65;48.14
49973;BME280;65693;49.798;10.968;2023-05-19T07:37:57;98764.16;;;13.70;47.86
49973;BME280;65693;49.798;10.968;2023-05-19T07:40:23;98765.00;;;13.70;48.22
49973;BME280;65693;49.798;10.968;2023-05-19T07:42:51;98764.03;;;13.71;47.86
49973;BME280;65693;49.798;10.968;2023-05-19T07:45:17;98760.28;;;13.75;48.28
49973;BME280;65693;49.798;10.968;2023-05-19T07:47:44;98759.31;;;13.76;48.05
49973;BME280;65693;49.798;10.968;2023-05-19T07:50:10;98757.97;;;13.69;47.96
49973;BME280;65693;49.798;10.968;2023-05-19T07:52:37;98762.72;;;13.78;47.83
49973;BME280;65693;49.798;10.968;2023-05-19T07:55:04;98757.59;;;14.01;48.75
49973;BME280;65693;49.798;10.968;2023-05-19T07:57:30;98753.03;;;14.03;47.87
49973;BME280;65693;49.798;10.968;2023-05-19T07:59:58;98748.75;;;14.14;48.02
49973;BME280;65693;49.798;10.968;2023-05-19T08:02:25;98754.00;;;14.15;47.84
49973;BME280;65693;49.798;10.968;2023-05-19T08:04:51;98743.66;;;14.11;47.88
49973;BME280;65693;49.798;10.968;2023-05-19T08:07:18;98748.03;;;14.12;48.22
49973;BME280;65693;49.798;10.968;2023-05-19T08:09:44;98750.56;;;14.13;48.89
49973;BME280;65693;49.798;10.968;2023-05-19T08:12:10;98745.78;;;14.18;47.92
49973;BME280;65693;49.798;10.968;2023-05-19T08:14:37;98744.16;;;14.16;47.93
49973;BME280;65693;49.798;10.968;2023-05-19T08:17:05;98737.66;;;14.20;47.58
49973;BME280;65693;49.798;10.968;2023-05-19T08:19:31;98729.03;;;14.29;47.78
49973;BME280;65693;49.798;10.968;2023-05-19T08:21:57;98726.03;;;14.34;48.02
49973;BME280;65693;49.798;10.968;2023-05-19T08:24:25;98729.44;;;14.36;48.15
49973;BME280;65693;49.798;10.968;2023-05-19T08:26:53;98729.94;;;14.41;48.19
49973;BME280;65693;49.798;10.968;2023-05-19T08:29:20;98727.06;;;14.44;48.28
49973;BME280;65693;49.798;10.968;2023-05-19T08:31:46;98727.06;;;14.44;48.45
49973;BME280;65693;49.798;10.968;2023-05-19T08:34:15;98725.25;;;14.45;48.21
49973;BME280;65693;49.798;10.968;2023-05-19T08:36:41;98723.44;;;14.45;48.23
49973;BME280;65693;49.798;10.968;2023-05-19T08:39:09;98717.03;;;14.48;48.16
49973;BME280;65693;49.798;10.968;2023-05-19T08:41:36;98709.69;;;14.51;48.56
49973;BME280;65693;49.798;10.968;2023-05-19T08:44:03;98707.84;;;14.52;48.11
49973;BME280;65693;49.798;10.968;2023-05-19T08:46:29;98706.09;;;14.64;47.64
49973;BME280;65693;49.798;10.968;2023-05-19T08:49:02;98707.38;;;14.71;47.78
49973;BME280;65693;49.798;10.968;2023-05-19T08:51:35;98707.88;;;14.76;47.53
49973;BME280;65693;49.798;10.968;2023-05-19T08:54:10;98699.13;;;14.74;47.57
49973;BME280;65693;49.798;10.968;2023-05-19T08:56:37;98706.81;;;14.79;47.58
49973;BME280;65693;49.798;10.968;2023-05-19T08:59:05;98709.88;;;14.86;47.86
49973;BME280;65693;49.798;10.968;2023-05-19T09:01:33;98708.59;;;14.78;46.88
49973;BME280;65693;49.798;10.968;2023-05-19T09:03:59;98705.19;;;14.76;46.58
49973;BME280;65693;49.798;10.968;2023-05-19T09:06:26;98700.00;;;14.75;46.53
49973;BME280;65693;49.798;10.968;2023-05-19T09:08:57;98699.88;;;14.76;46.59
49973;BME280;65693;49.798;10.968;2023-05-19T09:11:24;98682.78;;;14.79;46.46
49973;BME280;65693;49.798;10.968;2023-05-19T09:13:51;98691.53;;;14.81;46.27
49973;BME280;65693;49.798;10.968;2023-05-19T09:16:18;98679.88;;;14.82;46.60
49973;BME280;65693;49.798;10.968;2023-05-19T09:18:52;98688.88;;;14.81;46.32
49973;BME280;65693;49.798;10.968;2023-05-19T09:21:25;98688.88;;;14.81;46.26
49973;BME280;65693;49.798;10.968;2023-05-19T09:23:51;98681.59;;;14.83;46.18
49973;BME280;65693;49.798;10.968;2023-05-19T09:26:21;98686.09;;;14.83;46.15
49973;BME280;65693;49.798;10.968;2023-05-19T09:28:47;98673.59;;;14.83;46.58
49973;BME280;65693;49.798;10.968;2023-05-19T09:31:14;98677.72;;;14.87;46.50
49973;BME280;65693;49.798;10.968;2023-05-19T09:33:41;98676.75;;;14.88;46.25
49973;BME280;65693;49.798;10.968;2023-05-19T09:36:08;98675.69;;;14.91;45.99
49973;BME280;65693;49.798;10.968;2023-05-19T09:38:36;98672.69;;;14.96;45.93
49973;BME280;65693;49.798;10.968;2023-05-19T09:41:04;98680.91;;;14.92;45.88
49973;BME280;65693;49.798;10.968;2023-05-19T09:43:33;98684.31;;;14.94;45.84
49973;BME280;65693;49.798;10.968;2023-05-19T09:46:03;98683.47;;;14.94;46.16
49973;BME280;65693;49.798;10.968;2023-05-19T09:48:29;98669.88;;;14.97;45.86
49973;BME280;65693;49.798;10.968;2023-05-19T09:50:56;98675.97;;;14.99;46.25
49973;BME280;65693;49.798;10.968;2023-05-19T09:53:23;98669.56;;;15.02;46.07
49973;BME280;65693;49.798;10.968;2023-05-19T09:55:53;98671.16;;;15.04;46.18
49973;BME280;65693;49.798;10.968;2023-05-19T09:58:21;98674.56;;;15.06;45.57
49973;BME280;65693;49.798;10.968;2023-05-19T10:00:49;98673.59;;;15.07;45.87
49973;BME280;65693;49.798;10.968;2023-05-19T10:03:16;98673.91;;;15.16;46.12
49973;BME280;65693;49.798;10.968;2023-05-19T10:05:44;98667.72;;;15.27;46.08
49973;BME280;65693;49.798;10.968;2023-05-19T10:08:11;98655.94;;;15.29;46.08
49973;BME280;65693;49.798;10.968;2023-05-19T10:10:38;98661.00;;;15.10;43.57
49973;BME280;65693;49.798;10.968;2023-05-19T10:13:06;98653.28;;;15.29;43.71
49973;BME280;65693;49.798;10.968;2023-05-19T10:15:33;98658.72;;;15.75;43.90
49973;BME280;65693;49.798;10.968;2023-05-19T10:18:02;98653.72;;;15.82;43.12
49973;BME280;65693;49.798;10.968;2023-05-19T10:20:29;98645.38;;;15.86;43.30
49973;BME280;65693;49.798;10.968;2023-05-19T10:22:56;98653.41;;;16.20;42.40
49973;BME280;65693;49.798;10.968;2023-05-19T10:25:23;98645.38;;;15.98;42.73
49973;BME280;65693;49.798;10.968;2023-05-19T10:27:53;98644.50;;;15.74;42.77
49973;BME280;65693;49.798;10.968;2023-05-19T10:30:25;98639.06;;;15.99;42.83
49973;BME280;65693;49.798;10.968;2023-05-19T10:32:52;98634.28;;;16.02;42.44
49973;BME280;65693;49.798;10.968;2023-05-19T10:35:49;98641.47;;;15.79;41.88
49973;BME280;65693;49.798;10.968;2023-05-19T10:38:26;98629.56;;;15.83;42.62
49973;BME280;65693;49.798;10.968;2023-05-19T10:41:02;98627.88;;;15.82;42.95
49973;BME280;65693;49.798;10.968;2023-05-19T10:43:40;98621.94;;;15.90;43.93
49973;BME280;65693;49.798;10.968;2023-05-19T10:46:10;98620.81;;;15.92;43.79
49973;BME280;65693;49.798;10.968;2023-05-19T10:48:37;98620.34;;;15.87;43.46
49973;BME280;65693;49.798;10.968;2023-05-19T10:51:05;98606.97;;;15.87;43.97
49973;BME280;65693;49.798;10.968;2023-05-19T10:53:39;98615.97;;;15.86;43.97
49973;BME280;65693;49.798;10.968;2023-05-19T10:56:11;98612.81;;;15.81;44.38
49973;BME280;65693;49.798;10.968;2023-05-19T10:58:48;98609.91;;;15.84;44.11
49973;BME280;65693;49.798;10.968;2023-05-19T11:01:17;98612.44;;;15.86;44.13
49973;BME280;65693;49.798;10.968;2023-05-19T11:03:45;98605.13;;;15.88;43.74
49973;BME280;65693;49.798;10.968;2023-05-19T11:06:24;98599.94;;;15.86;43.44
49973;BME280;65693;49.798;10.968;2023-05-19T11:08:53;98601.63;;;15.87;43.49
49973;BME280;65693;49.798;10.968;2023-05-19T11:11:19;98602.09;;;15.92;43.92
49973;BME280;65693;49.798;10.968;2023-05-19T11:13:47;98600.16;;;15.95;43.54
49973;BME280;65693;49.798;10.968;2023-05-19T11:16:17;98601.84;;;15.96;43.54
49973;BME280;65693;49.798;10.968;2023-05-19T11:18:47;98595.78;;;16.05;43.50
49973;BME280;65693;49.798;10.968;2023-05-19T11:21:14;98594.19;;;16.02;44.01
49973;BME280;65693;49.798;10.968;2023-05-19T11:23:42;98589.47;;;16.06;42.99
49973;BME280;65693;49.798;10.968;2023-05-19T11:26:08;98595.53;;;16.08;43.23
49973;BME280;65693;49.798;10.968;2023-05-19T11:28:35;98595.66;;;16.06;42.85
49973;BME280;65693;49.798;10.968;2023-05-19T11:31:03;98598.91;;;16.10;44.01
49973;BME280;65693;49.798;10.968;2023-05-19T11:33:32;98592.88;;;16.19;42.68
49973;BME280;65693;49.798;10.968;2023-05-19T11:35:59;98592.63;;;16.23;42.21
49973;BME280;65693;49.798;10.968;2023-05-19T11:38:26;98592.38;;;16.26;42.49
49973;BME280;65693;49.798;10.968;2023-05-19T11:40:56;98585.94;;;16.28;42.96
49973;BME280;65693;49.798;10.968;2023-05-19T11:43:23;98579.25;;;16.23;43.23
49973;BME280;65693;49.798;10.968;2023-05-19T11:45:50;98579.25;;;16.23;43.21
49973;BME280;65693;49.798;10.968;2023-05-19T11:48:19;98583.00;;;16.20;42.84
49973;BME280;65693;49.798;10.968;2023-05-19T11:50:46;98590.19;;;16.31;43.00
49973;BME280;65693;49.798;10.968;2023-05-19T11:53:12;98583.09;;;16.30;43.05
49973;BME280;65693;49.798;10.968;2023-05-19T11:55:44;98574.38;;;16.28;42.67
49973;BME280;65693;49.798;10.968;2023-05-19T11:58:12;98580.69;;;16.27;43.08
49973;BME280;65693;49.798;10.968;2023-05-19T12:00:40;98578.97;;;16.37;42.95
49973;BME280;65693;49.798;10.968;2023-05-19T12:03:07;98582.38;;;16.39;43.30
49973;BME280;65693;49.798;10.968;2023-05-19T12:05:36;98574.34;;;16.39;42.92
49973;BME280;65693;49.798;10.968;2023-05-19T12:08:03;98578.00;;;16.38;42.93
49973;BME280;65693;49.798;10.968;2023-05-19T12:10:30;98577.00;;;16.39;42.45
49973;BME280;65693;49.798;10.968;2023-05-19T12:12:58;98567.75;;;16.43;42.86
49973;BME280;65693;49.798;10.968;2023-05-19T12:15:27;98568.09;;;16.50;42.70
49973;BME280;65693;49.798;10.968;2023-05-19T12:17:56;98570.66;;;16.52;42.18
49973;BME280;65693;49.798;10.968;2023-05-19T12:20:23;98567.00;;;16.53;42.77
49973;BME280;65693;49.798;10.968;2023-05-19T12:22:50;98561.13;;;16.59;42.40
49973;BME280;65693;49.798;10.968;2023-05-19T12:25:18;98560.31;;;16.58;41.89
49973;BME280;65693;49.798;10.968;2023-05-19T12:27:45;98564.75;;;16.69;41.98
49973;BME280;65693;49.798;10.968;2023-05-19T12:30:13;98560.56;;;16.76;41.81
49973;BME280;65693;49.798;10.968;2023-05-19T12:32:41;98570.06;;;16.81;41.08
49973;BME280;65693;49.798;10.968;2023-05-19T12:35:09;98556.97;;;16.87;41.27
49973;BME280;65693;49.798;10.968;2023-05-19T12:37:39;98541.25;;;16.94;41.93
49973;BME280;65693;49.798;10.968;2023-05-19T12:40:07;98541.63;;;17.11;40.48
49973;BME280;65693;49.798;10.968;2023-05-19T12:42:34;98536.50;;;16.98;41.20
49973;BME280;65693;49.798;10.968;2023-05-19T12:45:03;98536.22;;;17.01;41.30
49973;BME280;65693;49.798;10.968;2023-05-19T12:47:31;98541.19;;;17.05;41.80
49973;BME280;65693;49.798;10.968;2023-05-19T12:50:03;98538.84;;;17.12;41.18
49973;BME280;65693;49.798;10.968;2023-05-19T12:52:31;98536.44;;;17.09;41.09
49973;BME280;65693;49.798;10.968;2023-05-19T12:55:00;98537.78;;;17.25;40.89